Time;durP1;ratioP1;P1;durP2;ratioP2;P2;SDS_P1;SDS_P2;PMS_P1;PMS_P2;Temp;Humidity;BMP_temperature;BMP_pressure;BME280_temperature;BME280_humidity;BME280_pressure;Samples;Min_cycle;Max_cycle;Signal;HPM_P1;HPM_P2
2023/09/28 00:02:52;;;;;;;4.75;3.00;;;;;19.20;100839.00;;;;9959817;29;20294;-80
2023/09/28 00:07:55;;;;;;;9.02;3.58;;;;;19.10;100839.00;;;;9958473;29;20255;-81
2023/09/28 00:12:57;;;;;;;8.60;2.85;;;;;19.10;100849.00;;;;9971008;29;20220;-80
2023/09/28 00:17:59;;;;;;;5.35;3.15;;;;;19.20;100848.00;;;;9955171;29;20351;-80
2023/09/28 00:23:02;;;;;;;4.40;2.97;;;;;19.20;100853.00;;;;9949118;29;20221;-80
2023/09/28 00:28:05;;;;;;;7.30;3.63;;;;;19.10;100862.00;;;;9957064;29;20232;-81
2023/09/28 00:33:07;;;;;;;7.90;3.25;;;;;19.10;100854.00;;;;9943104;29;20232;-80
2023/09/28 00:38:10;;;;;;;5.50;2.92;;;;;19.10;100844.00;;;;9954360;29;20241;-80
2023/09/28 00:43:12;;;;;;;7.25;3.75;;;;;19.00;100857.00;;;;9955481;29;21897;-80
2023/09/28 00:48:14;;;;;;;4.40;3.00;;;;;18.80;100857.00;;;;9956063;29;20237;-81
2023/09/28 00:53:18;;;;;;;4.93;3.30;;;;;18.60;100860.00;;;;9948948;29;20294;-80
2023/09/28 00:58:23;;;;;;;5.72;3.38;;;;;18.50;100868.00;;;;9939190;29;21897;-81
2023/09/28 01:03:27;;;;;;;5.75;3.67;;;;;18.50;100872.00;;;;9932627;29;20296;-81
2023/09/28 01:08:29;;;;;;;4.20;3.22;;;;;18.40;100877.00;;;;9937977;29;20275;-81
2023/09/28 01:13:31;;;;;;;6.05;3.60;;;;;18.30;100880.00;;;;9961256;29;20313;-81
2023/09/28 01:18:33;;;;;;;4.45;3.05;;;;;18.20;100886.00;;;;9937064;29;20435;-82
2023/09/28 01:23:35;;;;;;;7.78;3.85;;;;;18.10;100882.00;;;;9964965;29;20233;-80
2023/09/28 01:28:38;;;;;;;4.25;3.40;;;;;18.00;100885.00;;;;9961597;29;20868;-80
2023/09/28 01:33:42;;;;;;;7.85;3.80;;;;;18.00;100886.00;;;;9941095;29;21869;-81
2023/09/28 01:38:50;;;;;;;6.78;3.30;;;;;17.90;100895.00;;;;9958148;29;20225;-81
2023/09/28 01:43:52;;;;;;;6.53;3.30;;;;;17.80;100890.00;;;;9956698;29;20312;-81
2023/09/28 01:48:54;;;;;;;6.68;4.50;;;;;17.70;100909.00;;;;9971032;29;20232;-80
2023/09/28 01:53:56;;;;;;;8.98;4.22;;;;;17.70;100909.00;;;;9969063;29;20217;-81
2023/09/28 01:58:58;;;;;;;9.73;4.07;;;;;17.60;100916.00;;;;9963580;29;20224;-80
2023/09/28 02:04:00;;;;;;;7.20;4.50;;;;;17.60;100919.00;;;;9952323;29;20263;-80
2023/09/28 02:09:04;;;;;;;8.60;4.65;;;;;17.60;100930.00;;;;9942607;29;20386;-80
2023/09/28 02:14:06;;;;;;;5.60;4.15;;;;;17.70;100931.00;;;;9936127;29;20225;-81
2023/09/28 02:19:12;;;;;;;6.18;4.13;;;;;17.60;100930.00;;;;9958603;29;20264;-81
2023/09/28 02:24:14;;;;;;;7.70;4.25;;;;;17.60;100930.00;;;;9949554;29;20226;-80
2023/09/28 02:29:15;;;;;;;12.10;4.90;;;;;17.60;100933.00;;;;9957784;29;20324;-80
2023/09/28 02:34:17;;;;;;;7.75;4.20;;;;;17.70;100930.00;;;;9942687;29;21824;-79
2023/09/28 02:39:19;;;;;;;8.02;4.40;;;;;17.70;100942.00;;;;9964465;29;22029;-81
2023/09/28 02:44:21;;;;;;;8.35;4.70;;;;;17.70;100940.00;;;;9956376;29;20232;-80
2023/09/28 02:49:26;;;;;;;6.35;4.60;;;;;17.70;100954.00;;;;9935824;29;20379;-79
2023/09/28 02:54:29;;;;;;;5.75;4.72;;;;;17.80;100959.00;;;;9957557;29;20311;-79
2023/09/28 02:59:32;;;;;;;8.25;4.93;;;;;18.00;100969.00;;;;9951591;29;20793;-81
2023/09/28 03:04:35;;;;;;;10.93;5.00;;;;;18.10;100979.00;;;;9957326;29;20225;-79
2023/09/28 03:09:37;;;;;;;8.85;4.25;;;;;18.20;100982.00;;;;9943354;29;20240;-80
2023/09/28 03:14:39;;;;;;;6.97;3.97;;;;;18.00;100987.00;;;;9955096;29;20272;-79
2023/09/28 03:19:41;;;;;;;6.25;4.40;;;;;17.90;100980.00;;;;9955526;29;20225;-82
2023/09/28 03:24:43;;;;;;;8.50;4.40;;;;;17.80;100966.00;;;;9938101;29;20237;-80
2023/09/28 03:29:44;;;;;;;6.43;4.18;;;;;17.60;100964.00;;;;9939989;29;20240;-80
2023/09/28 03:34:46;;;;;;;10.15;5.07;;;;;17.40;100964.00;;;;9940387;29;20248;-80
2023/09/28 03:39:49;;;;;;;5.30;4.60;;;;;17.20;100976.00;;;;9943210;29;20225;-80
2023/09/28 03:44:51;;;;;;;7.10;4.68;;;;;17.10;100992.00;;;;9940679;29;20304;-80
2023/09/28 03:49:53;;;;;;;8.02;4.78;;;;;17.00;100993.00;;;;9941100;29;21917;-80
2023/09/28 03:54:56;;;;;;;10.15;5.85;;;;;16.90;100999.00;;;;9969137;29;20247;-80
2023/09/28 03:59:58;;;;;;;10.23;5.40;;;;;16.80;101023.00;;;;9957538;29;20233;-80
2023/09/28 04:05:00;;;;;;;10.32;5.18;;;;;16.80;101037.00;;;;9955853;29;20220;-80
2023/09/28 04:10:03;;;;;;;7.80;4.80;;;;;16.80;101039.00;;;;9953204;29;20236;-80
2023/09/28 04:15:07;;;;;;;9.82;4.72;;;;;16.80;101037.00;;;;9955473;29;20248;-80
2023/09/28 04:20:10;;;;;;;7.97;5.40;;;;;16.70;101035.00;;;;9942944;29;21188;-80
2023/09/28 04:25:13;;;;;;;9.38;4.82;;;;;16.60;101025.00;;;;9948982;29;20229;-80
2023/09/28 04:30:15;;;;;;;7.88;4.45;;;;;16.50;101018.00;;;;9938417;29;20984;-80
2023/09/28 04:35:17;;;;;;;10.90;4.43;;;;;16.50;101031.00;;;;9957477;29;20235;-83
2023/09/28 04:40:24;;;;;;;15.85;3.78;;;;;16.40;101043.00;;;;9959562;29;20646;-82
2023/09/28 04:45:26;;;;;;;13.20;3.40;;;;;16.40;101059.00;;;;9947130;29;20224;-81
2023/09/28 04:50:28;;;;;;;18.15;3.50;;;;;16.40;101045.00;;;;9973480;29;20743;-81
2023/09/28 04:55:30;;;;;;;16.90;3.88;;;;;16.30;101068.00;;;;9949822;29;20241;-82
2023/09/28 05:00:32;;;;;;;15.60;3.75;;;;;16.20;101068.00;;;;10037080;29;20209;-80
2023/09/28 05:05:34;;;;;;;15.68;3.92;;;;;16.10;101071.00;;;;9985215;29;20213;-83
2023/09/28 05:10:36;;;;;;;13.73;3.40;;;;;15.80;101070.00;;;;9964089;29;20241;-83
2023/09/28 05:15:38;;;;;;;17.83;4.05;;;;;15.60;101058.00;;;;9954296;29;20262;-85
2023/09/28 05:20:41;;;;;;;18.63;3.97;;;;;15.50;101076.00;;;;9946521;29;20447;-82
2023/09/28 05:25:43;;;;;;;15.15;3.40;;;;;15.40;101080.00;;;;9936419;29;20353;-82
2023/09/28 05:30:45;;;;;;;14.75;4.13;;;;;15.30;101093.00;;;;9945214;29;20253;-84
2023/09/28 05:35:47;;;;;;;21.00;3.97;;;;;15.30;101105.00;;;;9950629;29;20229;-82
2023/09/28 05:40:48;;;;;;;18.77;4.13;;;;;15.20;101100.00;;;;9954009;29;22043;-84
2023/09/28 05:45:51;;;;;;;20.90;4.15;;;;;15.30;101106.00;;;;9968140;29;20225;-83
2023/09/28 05:50:53;;;;;;;18.75;4.38;;;;;15.20;101114.00;;;;9939326;29;20237;-82
2023/09/28 05:55:55;;;;;;;19.92;4.32;;;;;15.20;101115.00;;;;9956182;29;20331;-84
2023/09/28 06:01:06;;;;;;;19.40;4.57;;;;;15.30;101125.00;;;;9942137;29;20244;-83
2023/09/28 06:06:16;;;;;;;19.85;4.20;;;;;15.40;101123.00;;;;9949116;29;21833;-83
2023/09/28 06:11:19;;;;;;;18.45;3.97;;;;;15.40;101127.00;;;;9970474;29;20236;-83
2023/09/28 06:16:21;;;;;;;21.38;4.43;;;;;15.60;101136.00;;;;9966499;29;20225;-84
2023/09/28 06:21:23;;;;;;;24.38;5.15;;;;;15.70;101147.00;;;;9946500;29;21000;-83
2023/09/28 06:26:26;;;;;;;22.17;4.68;;;;;15.90;101162.00;;;;9969252;29;21918;-83
2023/09/28 06:31:43;;;;;;;18.83;4.40;;;;;16.00;101176.00;;;;9945488;29;20324;-83
2023/09/28 06:36:45;;;;;;;22.08;4.55;;;;;16.00;101180.00;;;;9959722;29;20224;-82
2023/09/28 06:41:47;;;;;;;17.33;4.38;;;;;16.20;101183.00;;;;9944422;29;20316;-82
2023/09/28 06:46:57;;;;;;;20.17;4.35;;;;;16.30;101189.00;;;;9948256;29;20283;-82
2023/09/28 06:51:59;;;;;;;21.75;4.28;;;;;16.50;101198.00;;;;9935890;29;20233;-79
2023/09/28 07:11:41;;;;;;;21.35;4.72;;;;;17.50;101179.00;;;;10484552;27;20343;-80
2023/09/28 07:16:43;;;;;;;21.17;5.28;;;;;17.90;101203.00;;;;10480810;27;20222;-80
2023/09/28 07:21:44;;;;;;;21.10;4.28;;;;;18.20;101203.00;;;;10436389;27;21518;-80
2023/09/28 07:26:46;;;;;;;17.05;5.03;;;;;18.50;101219.00;;;;10369677;28;20210;-81
2023/09/28 07:31:47;;;;;;;24.15;4.10;;;;;18.50;101224.00;;;;10374009;28;20237;-80
2023/09/28 07:36:48;;;;;;;27.33;4.70;;;;;18.50;101241.00;;;;10348971;28;21952;-81
2023/09/28 07:41:51;;;;;;;24.00;4.68;;;;;18.50;101236.00;;;;10346269;28;20237;-80
2023/09/28 07:46:54;;;;;;;21.42;4.25;;;;;18.80;101243.00;;;;10358866;28;20214;-81
2023/09/28 07:51:55;;;;;;;22.42;4.10;;;;;19.20;101247.00;;;;10369571;27;20257;-80
2023/09/28 07:56:56;;;;;;;19.15;4.53;;;;;19.40;101236.00;;;;10366263;27;20227;-81
2023/09/28 08:01:58;;;;;;;21.63;4.50;;;;;19.80;101229.00;;;;10395995;27;20228;-81
2023/09/28 08:06:59;;;;;;;18.60;4.63;;;;;20.00;101229.00;;;;10378541;27;20347;-81
2023/09/28 08:12:01;;;;;;;24.55;4.97;;;;;20.30;101250.00;;;;10384012;27;20224;-81
2023/09/28 08:17:04;;;;;;;20.52;4.00;;;;;20.60;101244.00;;;;10380615;27;20291;-82
2023/09/28 08:22:05;;;;;;;19.67;4.75;;;;;20.60;101256.00;;;;10376168;28;22590;-81
2023/09/28 08:27:06;;;;;;;14.88;3.90;;;;;20.80;101266.00;;;;10368547;28;20228;-81
2023/09/28 08:32:08;;;;;;;26.38;4.88;;;;;21.00;101261.00;;;;10332693;28;20214;-82
2023/09/28 08:37:09;;;;;;;17.80;4.13;;;;;21.70;101270.00;;;;10352368;28;20331;-82
2023/09/28 08:42:15;;;;;;;15.88;4.15;;;;;21.40;101270.00;;;;10364454;28;20250;-81
2023/09/28 08:47:16;;;;;;;22.80;4.50;;;;;21.50;101259.00;;;;10408199;28;20381;-81
2023/09/28 08:52:19;;;;;;;19.75;3.92;;;;;21.70;101263.00;;;;10369209;28;20210;-82
2023/09/28 08:57:20;;;;;;;22.08;4.45;;;;;22.00;101262.00;;;;10374766;28;20293;-82
2023/09/28 09:02:22;;;;;;;24.92;4.47;;;;;22.40;101273.00;;;;10392233;28;20223;-82
2023/09/28 09:07:24;;;;;;;22.58;4.47;;;;;22.40;101273.00;;;;10411349;28;21172;-81
2023/09/28 09:12:28;;;;;;;17.55;4.07;;;;;22.20;101257.00;;;;10376038;28;20205;-81
2023/09/28 09:17:33;;;;;;;19.82;4.84;;;;;22.30;101273.00;;;;10365256;28;1648101;-81
2023/09/28 09:22:37;;;;;;;15.10;3.85;;;;;22.00;101271.00;;;;10376159;28;20225;-79
2023/09/28 09:27:59;;;;;;;16.88;4.43;;;;;22.00;101269.00;;;;10397268;28;20225;-82
2023/09/28 09:33:01;;;;;;;16.75;4.40;;;;;22.20;101267.00;;;;10393311;28;20289;-81
2023/09/28 09:38:03;;;;;;;16.25;3.30;;;;;22.20;101259.00;;;;10390745;28;20292;-82
2023/09/28 09:43:07;;;;;;;17.67;4.68;;;;;22.40;101251.00;;;;10372723;28;20239;-82
2023/09/28 09:48:10;;;;;;;20.23;4.20;;;;;22.90;101251.00;;;;10386433;28;20208;-82
2023/09/28 09:53:13;;;;;;;21.30;4.40;;;;;22.90;101262.00;;;;10367913;28;20235;-83
2023/09/28 09:58:18;;;;;;;12.63;3.72;;;;;23.20;101248.00;;;;10380626;28;20245;-82
2023/09/28 10:03:21;;;;;;;14.45;4.10;;;;;23.30;101259.00;;;;10365857;28;20326;-82
2023/09/28 10:08:25;;;;;;;21.25;4.22;;;;;22.80;101255.00;;;;10396735;28;20192;-82
2023/09/28 10:13:31;;;;;;;17.00;4.03;;;;;23.30;101260.00;;;;10361156;28;20209;-82
2023/09/28 10:18:36;;;;;;;16.38;3.42;;;;;23.80;101258.00;;;;10372337;27;20351;-82
2023/09/28 10:23:37;;;;;;;20.17;4.43;;;;;24.40;101269.00;;;;10369109;27;20208;-84
2023/09/28 10:29:05;;;;;;;18.23;4.07;;;;;24.60;101259.00;;;;10328208;27;20216;-84
2023/09/28 10:34:15;;;;;;;15.80;4.05;;;;;25.40;101250.00;;;;10352437;27;20296;-85
2023/09/28 10:39:17;;;;;;;14.95;4.10;;;;;26.20;101252.00;;;;10358736;28;21592;-83
2023/09/28 10:44:20;;;;;;;18.00;4.05;;;;;26.50;101258.00;;;;10381296;28;20286;-84
2023/09/28 10:49:26;;;;;;;16.60;4.15;;;;;25.60;101256.00;;;;10370835;27;20224;-83
2023/09/28 10:54:29;;;;;;;13.40;3.67;;;;;25.20;101262.00;;;;10383117;27;20213;-83
2023/09/28 10:59:31;;;;;;;15.82;4.18;;;;;25.30;101258.00;;;;10389800;28;20305;-83
2023/09/28 11:04:37;;;;;;;13.77;3.28;;;;;25.60;101248.00;;;;10380644;28;20839;-83
2023/09/28 11:09:53;;;;;;;15.30;3.55;;;;;25.70;101250.00;;;;10429862;28;20210;-83
2023/09/28 11:14:58;;;;;;;14.43;3.65;;;;;25.70;101236.00;;;;10430749;28;20241;-83
2023/09/28 11:20:00;;;;;;;9.77;3.03;;;;;25.80;101260.00;;;;10415834;28;20245;-82
2023/09/28 11:25:03;;;;;;;17.98;3.92;;;;;25.90;101229.00;;;;10452018;28;20213;-82
2023/09/28 11:30:07;;;;;;;11.75;3.55;;;;;26.10;101228.00;;;;10432834;28;20220;-84
2023/09/28 11:35:09;;;;;;;12.85;3.65;;;;;26.00;101228.00;;;;10441512;28;20714;-85
2023/09/28 11:40:12;;;;;;;13.07;3.22;;;;;26.30;101233.00;;;;10452214;28;20267;-83
2023/09/28 11:45:14;;;;;;;13.55;3.83;;;;;26.20;101222.00;;;;10456518;28;20205;-82
2023/09/28 11:50:17;;;;;;;15.05;3.33;;;;;26.50;101233.00;;;;10444095;28;20773;-83
2023/09/28 11:55:19;;;;;;;12.38;2.85;;;;;25.70;101220.00;;;;10443339;28;20278;-84
2023/09/28 12:00:24;;;;;;;11.10;3.17;;;;;25.10;101219.00;;;;10454583;28;20229;-86
2023/09/28 12:05:26;;;;;;;12.40;3.42;;;;;25.20;101206.00;;;;10439101;28;20201;-83
2023/09/28 12:10:28;;;;;;;9.95;3.22;;;;;26.10;101207.00;;;;10444544;28;20300;-85
2023/09/28 12:15:30;;;;;;;13.35;3.70;;;;;26.30;101187.00;;;;10440908;28;20970;-85
2023/09/28 12:20:32;;;;;;;9.38;3.17;;;;;26.30;101190.00;;;;10479398;28;20278;-85
2023/09/28 12:25:34;;;;;;;8.57;3.58;;;;;26.60;101204.00;;;;10451771;28;20213;-84
2023/09/28 12:30:36;;;;;;;13.25;4.10;;;;;26.80;101205.00;;;;10440498;28;20205;-85
2023/09/28 12:35:39;;;;;;;12.70;3.72;;;;;26.40;101203.00;;;;10459925;28;20205;-84
2023/09/28 12:40:42;;;;;;;10.50;4.15;;;;;26.00;101206.00;;;;10421991;28;20214;-84
2023/09/28 12:45:44;;;;;;;12.35;3.65;;;;;25.80;101217.00;;;;10429236;28;20259;-82
2023/09/28 12:50:47;;;;;;;11.88;4.60;;;;;25.20;101208.00;;;;10451777;28;20255;-82
2023/09/28 12:55:49;;;;;;;10.70;3.63;;;;;25.30;101208.00;;;;10451602;28;20202;-83
2023/09/28 13:00:52;;;;;;;15.13;4.28;;;;;24.70;101208.00;;;;10438569;28;20399;-82
2023/09/28 13:05:57;;;;;;;12.88;4.18;;;;;24.90;101194.00;;;;10438531;28;20292;-84
2023/09/28 13:10:59;;;;;;;9.82;4.18;;;;;25.00;101184.00;;;;10419335;28;20236;-84
2023/09/28 13:16:01;;;;;;;9.52;3.38;;;;;25.10;101191.00;;;;10430887;28;20308;-83
2023/09/28 13:21:04;;;;;;;7.10;3.22;;;;;25.20;101191.00;;;;10446494;28;20256;-88
2023/09/28 13:26:08;;;;;;;8.50;3.53;;;;;25.10;101191.00;;;;10431452;28;21087;-83
2023/09/28 13:31:10;;;;;;;12.77;3.70;;;;;25.10;101200.00;;;;10437894;28;20277;-83
2023/09/28 13:36:14;;;;;;;9.98;3.20;;;;;25.30;101190.00;;;;10444268;28;20224;-83
2023/09/28 13:41:17;;;;;;;9.98;2.70;;;;;25.50;101191.00;;;;10446216;28;20213;-84
2023/09/28 13:46:19;;;;;;;8.80;2.53;;;;;25.00;101191.00;;;;10431111;28;20208;-81
2023/09/28 13:51:20;;;;;;;9.80;2.83;;;;;24.10;101183.00;;;;10419799;28;20214;-80
2023/09/28 13:56:23;;;;;;;11.95;2.75;;;;;24.20;101170.00;;;;10449220;28;20198;-79
2023/09/28 14:01:25;;;;;;;11.40;3.28;;;;;24.60;101162.00;;;;10439997;28;20222;-80
2023/09/28 14:06:28;;;;;;;8.98;3.10;;;;;24.60;101168.00;;;;10440030;28;20278;-81
2023/09/28 14:11:30;;;;;;;10.32;3.47;;;;;24.60;101176.00;;;;10450393;28;20237;-80
2023/09/28 14:16:33;;;;;;;11.35;3.22;;;;;24.40;101178.00;;;;10451371;28;20193;-79
2023/09/28 14:21:36;;;;;;;9.02;2.72;;;;;24.00;101180.00;;;;10438024;28;20845;-80
2023/09/28 14:26:41;;;;;;;10.48;3.05;;;;;24.30;101176.00;;;;10434283;28;20198;-81
2023/09/28 14:31:44;;;;;;;9.43;2.88;;;;;24.10;101172.00;;;;10425855;28;20871;-81
2023/09/28 14:36:46;;;;;;;8.82;2.97;;;;;24.10;101167.00;;;;10407887;28;20225;-80
2023/09/28 14:41:48;;;;;;;7.00;2.58;;;;;24.00;101151.00;;;;10391028;28;20290;-81
2023/09/28 14:46:51;;;;;;;8.23;2.75;;;;;23.60;101142.00;;;;10408039;28;20276;-81
2023/09/28 14:51:53;;;;;;;6.80;2.75;;;;;23.40;101138.00;;;;10414832;28;20209;-82
2023/09/28 14:56:55;;;;;;;9.80;3.50;;;;;23.20;101125.00;;;;10413151;28;20231;-80
2023/09/28 15:01:57;;;;;;;10.60;3.13;;;;;23.00;101120.00;;;;10395975;28;20237;-83
2023/09/28 15:06:59;;;;;;;10.70;2.90;;;;;22.90;101122.00;;;;10413219;28;20832;-83
2023/09/28 15:12:01;;;;;;;10.82;2.60;;;;;22.70;101124.00;;;;10447975;28;20201;-81
2023/09/28 15:17:04;;;;;;;12.73;2.88;;;;;22.50;101124.00;;;;10420023;28;20310;-83
2023/09/28 15:22:06;;;;;;;8.95;3.03;;;;;22.30;101126.00;;;;10378879;28;20255;-82
2023/09/28 15:27:09;;;;;;;13.07;3.25;;;;;22.20;101121.00;;;;10378485;28;20824;-82
2023/09/28 15:32:13;;;;;;;10.13;3.17;;;;;22.10;101130.00;;;;10415679;28;20728;-83
2023/09/28 15:37:18;;;;;;;9.80;3.20;;;;;22.10;101133.00;;;;10389706;28;20225;-82
2023/09/28 15:42:21;;;;;;;11.95;3.20;;;;;22.00;101113.00;;;;10394859;28;20229;-81
2023/09/28 15:47:22;;;;;;;10.38;3.20;;;;;21.90;101112.00;;;;10433126;28;20209;-81
2023/09/28 15:52:24;;;;;;;14.10;3.83;;;;;21.80;101114.00;;;;10446503;28;20202;-82
2023/09/28 15:57:27;;;;;;;9.35;2.95;;;;;21.60;101102.00;;;;10441442;28;20228;-82
2023/09/28 16:02:29;;;;;;;9.13;2.60;;;;;21.40;101106.00;;;;10436370;28;20218;-82
2023/09/28 16:07:31;;;;;;;8.05;3.35;;;;;21.20;101102.00;;;;10429103;28;20202;-82
2023/09/28 16:12:33;;;;;;;10.10;3.00;;;;;21.10;101115.00;;;;10443037;28;20202;-80
2023/09/28 16:17:35;;;;;;;9.77;3.20;;;;;21.00;101115.00;;;;10451380;28;20270;-80
2023/09/28 16:22:38;;;;;;;12.90;2.97;;;;;20.80;101123.00;;;;10447994;28;20316;-80
2023/09/28 16:27:39;;;;;;;11.20;3.38;;;;;20.70;101120.00;;;;10448357;28;20197;-80
2023/09/28 16:32:41;;;;;;;14.98;3.42;;;;;20.70;101129.00;;;;10443817;28;20198;-80
2023/09/28 16:37:43;;;;;;;12.75;3.63;;;;;20.70;101132.00;;;;10438154;28;20197;-80
2023/09/28 16:42:45;;;;;;;8.13;3.13;;;;;20.60;101130.00;;;;10439865;28;20221;-80
2023/09/28 16:47:47;;;;;;;12.07;3.25;;;;;20.50;101139.00;;;;10442879;28;20212;-80
2023/09/28 16:52:49;;;;;;;13.65;3.38;;;;;20.40;101131.00;;;;10434492;28;20674;-80
2023/09/28 16:57:51;;;;;;;17.33;4.88;;;;;20.20;101135.00;;;;10442228;28;20241;-80
2023/09/28 17:02:54;;;;;;;11.20;3.08;;;;;19.90;101116.00;;;;10458698;28;20304;-80
2023/09/28 17:07:56;;;;;;;17.65;4.13;;;;;19.60;101119.00;;;;10427135;28;20605;-80
2023/09/28 17:12:58;;;;;;;13.80;3.50;;;;;19.20;101125.00;;;;10448728;28;20201;-79
2023/09/28 17:18:00;;;;;;;12.90;3.63;;;;;18.90;101127.00;;;;10440138;28;20697;-80
2023/09/28 17:23:20;;;;;;;11.25;3.50;;;;;18.70;101123.00;;;;10471302;28;20197;-84
2023/09/28 17:28:24;;;;;;;11.45;3.72;;;;;18.70;101138.00;;;;10438996;28;20207;-82
2023/09/28 17:33:26;;;;;;;8.60;3.17;;;;;18.50;101140.00;;;;10442745;28;20236;-81
2023/09/28 17:38:28;;;;;;;10.70;3.47;;;;;18.20;101146.00;;;;10439892;28;20217;-83
2023/09/28 17:43:30;;;;;;;12.10;4.18;;;;;18.00;101151.00;;;;10431205;28;20201;-83
2023/09/28 17:48:32;;;;;;;14.93;3.65;;;;;17.90;101154.00;;;;10449978;28;20202;-82
2023/09/28 17:53:34;;;;;;;15.15;4.07;;;;;17.70;101152.00;;;;10435390;28;20260;-83
2023/09/28 17:58:36;;;;;;;14.65;3.95;;;;;17.60;101152.00;;;;10438762;28;20217;-83
2023/09/28 18:03:38;;;;;;;12.48;4.30;;;;;17.40;101154.00;;;;10439144;28;20199;-82
2023/09/28 18:08:40;;;;;;;18.52;4.18;;;;;17.30;101157.00;;;;10442692;28;20209;-82
2023/09/28 18:13:42;;;;;;;13.32;4.38;;;;;17.20;101142.00;;;;10437458;28;20205;-82
2023/09/28 18:18:45;;;;;;;17.52;4.75;;;;;17.00;101148.00;;;;10445199;28;20213;-83
2023/09/28 18:23:47;;;;;;;13.77;5.05;;;;;16.90;101141.00;;;;10447698;28;20852;-83
2023/09/28 18:28:50;;;;;;;12.23;4.28;;;;;16.80;101145.00;;;;10441096;28;20256;-82
2023/09/28 18:33:51;;;;;;;13.05;4.50;;;;;16.60;101148.00;;;;10404260;28;20216;-82
2023/09/28 18:38:58;;;;;;;14.07;5.03;;;;;16.60;101146.00;;;;10464977;28;20224;-82
2023/09/28 18:44:15;;;;;;;18.52;5.07;;;;;16.50;101142.00;;;;10449961;28;20205;-81
2023/09/28 18:49:20;;;;;;;11.25;4.05;;;;;16.40;101136.00;;;;10433279;28;20206;-83
2023/09/28 18:54:22;;;;;;;15.30;4.07;;;;;16.40;101134.00;;;;10425778;28;20214;-82
2023/09/28 18:59:25;;;;;;;14.85;3.97;;;;;16.40;101130.00;;;;10421739;28;20278;-84
2023/09/28 19:04:28;;;;;;;12.77;4.22;;;;;16.30;101141.00;;;;10443726;28;20229;-81
2023/09/28 19:09:33;;;;;;;11.13;4.25;;;;;16.30;101143.00;;;;10424375;28;20212;-82
2023/09/28 19:14:37;;;;;;;12.35;3.92;;;;;16.30;101142.00;;;;10449341;28;20201;-83
2023/09/28 19:19:39;;;;;;;16.85;5.28;;;;;16.30;101131.00;;;;10416605;28;20241;-83
2023/09/28 19:24:41;;;;;;;17.77;4.93;;;;;16.30;101130.00;;;;10444983;28;20201;-82
2023/09/28 19:29:43;;;;;;;13.25;4.70;;;;;16.40;101119.00;;;;10450790;28;20214;-83
2023/09/28 19:34:45;;;;;;;9.48;4.50;;;;;16.60;101113.00;;;;10436654;28;20225;-81
2023/09/28 19:39:47;;;;;;;15.23;5.25;;;;;16.60;101107.00;;;;10452051;28;20836;-82
2023/09/28 19:44:48;;;;;;;15.82;5.15;;;;;16.60;101105.00;;;;10457136;28;20237;-80
2023/09/28 19:49:51;;;;;;;14.95;5.18;;;;;16.60;101095.00;;;;10434569;28;20217;-80
2023/09/28 19:54:53;;;;;;;17.23;5.07;;;;;16.60;101103.00;;;;10428206;28;20221;-81
2023/09/28 19:59:54;;;;;;;12.13;3.65;;;;;16.60;101111.00;;;;10435729;28;20275;-83
2023/09/28 20:04:57;;;;;;;13.82;3.60;;;;;16.60;101100.00;;;;10441349;28;20706;-82
2023/09/28 20:09:59;;;;;;;11.98;4.28;;;;;16.70;101087.00;;;;10431345;28;20206;-80
2023/09/28 20:15:01;;;;;;;16.23;3.90;;;;;16.70;101088.00;;;;10457472;28;20220;-83
2023/09/28 20:20:07;;;;;;;15.32;3.92;;;;;16.80;101092.00;;;;10442803;28;20240;-82
2023/09/28 20:25:09;;;;;;;16.40;4.53;;;;;16.90;101086.00;;;;10448464;28;20210;-83
2023/09/28 20:30:11;;;;;;;15.63;3.88;;;;;16.90;101081.00;;;;10476777;28;20312;-81
2023/09/28 20:35:16;;;;;;;14.30;4.50;;;;;16.90;101077.00;;;;10427823;28;20216;-81
2023/09/28 20:40:18;;;;;;;10.80;3.80;;;;;17.00;101072.00;;;;10442926;28;20217;-83
2023/09/28 20:45:20;;;;;;;10.55;3.70;;;;;17.00;101072.00;;;;10445668;28;20213;-81
2023/09/28 20:50:22;;;;;;;14.55;4.05;;;;;16.80;101068.00;;;;10449501;28;20209;-86
2023/09/28 20:55:24;;;;;;;12.90;3.80;;;;;16.70;101066.00;;;;10457895;28;20263;-81
2023/09/28 21:00:26;;;;;;;11.45;4.22;;;;;16.60;101062.00;;;;10437792;28;20272;-82
2023/09/28 21:05:30;;;;;;;13.48;3.78;;;;;16.60;101062.00;;;;10454875;28;20679;-81
2023/09/28 21:10:36;;;;;;;17.20;4.38;;;;;16.80;101071.00;;;;10448143;28;20205;-84
2023/09/28 21:15:38;;;;;;;19.05;5.30;;;;;16.80;101054.00;;;;10431698;28;20210;-83
2023/09/28 21:20:40;;;;;;;13.68;4.00;;;;;16.80;101042.00;;;;10450104;28;20214;-84
2023/09/28 21:25:42;;;;;;;11.70;4.38;;;;;16.80;101056.00;;;;10436038;28;20195;-80
2023/09/28 21:30:44;;;;;;;15.23;4.45;;;;;16.90;101049.00;;;;10457660;28;20209;-82
2023/09/28 21:35:46;;;;;;;15.57;4.03;;;;;16.90;101052.00;;;;10449846;28;20217;-81
2023/09/28 21:40:48;;;;;;;12.60;4.00;;;;;16.90;101061.00;;;;10460807;28;20271;-82
2023/09/28 21:45:49;;;;;;;13.20;4.10;;;;;16.90;101070.00;;;;10430749;28;20198;-82
2023/09/28 21:50:51;;;;;;;14.20;4.25;;;;;16.80;101068.00;;;;10471394;28;20217;-81
2023/09/28 21:55:54;;;;;;;12.98;4.72;;;;;16.80;101076.00;;;;10438126;28;20209;-81
2023/09/28 22:00:56;;;;;;;12.25;4.43;;;;;16.70;101075.00;;;;10422275;28;20706;-82
2023/09/28 22:05:58;;;;;;;9.40;4.47;;;;;16.70;101074.00;;;;10442342;28;20201;-81
2023/09/28 22:11:01;;;;;;;11.73;4.00;;;;;16.70;101059.00;;;;10451534;28;20990;-82
2023/09/28 22:16:04;;;;;;;10.82;4.03;;;;;16.80;101063.00;;;;10433839;28;20214;-82
2023/09/28 22:21:06;;;;;;;14.18;4.22;;;;;16.80;101052.00;;;;10431333;28;20331;-82
2023/09/28 22:26:08;;;;;;;16.10;4.30;;;;;16.80;101045.00;;;;10429548;28;20206;-81
2023/09/28 22:31:10;;;;;;;13.95;4.25;;;;;16.90;101043.00;;;;10446482;28;20209;-81
2023/09/28 22:36:12;;;;;;;14.07;4.65;;;;;16.90;101035.00;;;;10455091;28;20209;-81
2023/09/28 22:41:15;;;;;;;12.07;4.40;;;;;16.90;101039.00;;;;10436268;28;20236;-81
2023/09/28 22:46:17;;;;;;;14.27;3.92;;;;;16.90;101041.00;;;;10445045;28;20835;-82
2023/09/28 22:51:18;;;;;;;13.60;3.70;;;;;17.00;101046.00;;;;10467904;28;20611;-80
2023/09/28 22:56:21;;;;;;;9.20;3.88;;;;;17.00;101051.00;;;;10424031;28;20209;-81
2023/09/28 23:01:23;;;;;;;10.23;4.10;;;;;17.10;101045.00;;;;10425850;28;20218;-82
2023/09/28 23:06:25;;;;;;;15.73;4.50;;;;;17.10;101038.00;;;;10439239;28;20831;-81
2023/09/28 23:11:27;;;;;;;8.10;3.78;;;;;17.10;101041.00;;;;10444994;28;20228;-83
2023/09/28 23:16:32;;;;;;;12.43;3.75;;;;;17.10;101035.00;;;;10444969;28;20205;-81
2023/09/28 23:21:35;;;;;;;11.77;4.18;;;;;17.10;101028.00;;;;10439070;28;20229;-84
2023/09/28 23:26:37;;;;;;;6.28;3.60;;;;;17.20;101027.00;;;;10458711;28;20194;-82
2023/09/28 23:31:39;;;;;;;8.90;3.58;;;;;17.20;101034.00;;;;10460518;28;20226;-83
2023/09/28 23:36:41;;;;;;;8.77;3.55;;;;;17.20;101034.00;;;;10431403;28;20209;-83
2023/09/28 23:41:43;;;;;;;9.70;4.43;;;;;17.20;101031.00;;;;10423835;28;20266;-82
2023/09/28 23:46:46;;;;;;;12.35;4.32;;;;;17.20;101027.00;;;;10458698;28;20208;-84
2023/09/28 23:51:48;;;;;;;9.52;3.30;;;;;17.20;101023.00;;;;10432176;28;20202;-84
2023/09/28 23:56:49;;;;;;;9.40;3.33;;;;;17.30;101026.00;;;;10417995;28;20212;-85
